sensor_id;sensor_type;location;lat;lon;timestamp;P1;durP1;ratioP1;P2;durP2;ratioP2
73550;SDS011;61816;53.582;10.096;2023-04-24T00:00:57;10.60;;;6.90;;
73550;SDS011;61816;53.582;10.096;2023-04-24T00:03:23;11.38;;;6.60;;
73550;SDS011;61816;53.582;10.096;2023-04-24T00:05:49;13.82;;;6.93;;
73550;SDS011;61816;53.582;10.096;2023-04-24T00:08:15;9.43;;;7.13;;
73550;SDS011;61816;53.582;10.096;2023-04-24T00:10:40;10.23;;;6.57;;
73550;SDS011;61816;53.582;10.096;2023-04-24T00:13:06;8.43;;;6.65;;
73550;SDS011;61816;53.582;10.096;2023-04-24T00:15:31;11.98;;;7.60;;
73550;SDS011;61816;53.582;10.096;2023-04-24T00:17:58;10.90;;;6.82;;
73550;SDS011;61816;53.582;10.096;2023-04-24T00:20:23;17.60;;;7.43;;
73550;SDS011;61816;53.582;10.096;2023-04-24T00:22:48;13.32;;;6.93;;
73550;SDS011;61816;53.582;10.096;2023-04-24T00:25:14;10.05;;;7.00;;
73550;SDS011;61816;53.582;10.096;2023-04-24T00:27:40;8.55;;;6.70;;
73550;SDS011;61816;53.582;10.096;2023-04-24T00:30:05;11.75;;;6.93;;
73550;SDS011;61816;53.582;10.096;2023-04-24T00:32:31;11.55;;;7.40;;
73550;SDS011;61816;53.582;10.096;2023-04-24T00:34:56;11.38;;;7.97;;
73550;SDS011;61816;53.582;10.096;2023-04-24T00:37:22;10.32;;;7.28;;
73550;SDS011;61816;53.582;10.096;2023-04-24T00:39:47;17.00;;;7.95;;
73550;SDS011;61816;53.582;10.096;2023-04-24T00:42:12;9.45;;;7.38;;
73550;SDS011;61816;53.582;10.096;2023-04-24T00:44:38;12.27;;;7.47;;
73550;SDS011;61816;53.582;10.096;2023-04-24T00:47:03;9.93;;;7.47;;
73550;SDS011;61816;53.582;10.096;2023-04-24T00:49:29;12.23;;;7.47;;
73550;SDS011;61816;53.582;10.096;2023-04-24T00:51:55;11.07;;;7.20;;
73550;SDS011;61816;53.582;10.096;2023-04-24T00:54:21;12.27;;;7.80;;
73550;SDS011;61816;53.582;10.096;2023-04-24T00:56:47;11.60;;;7.75;;
73550;SDS011;61816;53.582;10.096;2023-04-24T00:59:13;13.32;;;7.60;;
73550;SDS011;61816;53.582;10.096;2023-04-24T01:01:42;9.93;;;7.72;;
73550;SDS011;61816;53.582;10.096;2023-04-24T01:04:08;16.52;;;7.75;;
73550;SDS011;61816;53.582;10.096;2023-04-24T01:06:35;11.27;;;7.97;;
73550;SDS011;61816;53.582;10.096;2023-04-24T01:09:04;9.93;;;8.20;;
73550;SDS011;61816;53.582;10.096;2023-04-24T01:11:30;14.15;;;9.20;;
73550;SDS011;61816;53.582;10.096;2023-04-24T01:13:56;11.27;;;7.97;;
73550;SDS011;61816;53.582;10.096;2023-04-24T01:16:22;13.73;;;8.90;;
73550;SDS011;61816;53.582;10.096;2023-04-24T01:18:47;9.50;;;8.07;;
73550;SDS011;61816;53.582;10.096;2023-04-24T01:21:13;11.10;;;8.18;;
73550;SDS011;61816;53.582;10.096;2023-04-24T01:23:42;17.33;;;8.25;;
73550;SDS011;61816;53.582;10.096;2023-04-24T01:26:08;12.15;;;7.20;;
73550;SDS011;61816;53.582;10.096;2023-04-24T01:28:34;12.02;;;8.40;;
73550;SDS011;61816;53.582;10.096;2023-04-24T01:30:59;11.57;;;7.82;;
73550;SDS011;61816;53.582;10.096;2023-04-24T01:33:25;13.55;;;7.80;;
73550;SDS011;61816;53.582;10.096;2023-04-24T01:35:50;11.07;;;8.85;;
73550;SDS011;61816;53.582;10.096;2023-04-24T01:38:16;8.82;;;7.15;;
73550;SDS011;61816;53.582;10.096;2023-04-24T01:40:41;11.75;;;7.20;;
73550;SDS011;61816;53.582;10.096;2023-04-24T01:43:07;9.32;;;6.82;;
73550;SDS011;61816;53.582;10.096;2023-04-24T01:45:32;23.30;;;7.63;;
73550;SDS011;61816;53.582;10.096;2023-04-24T01:47:58;7.30;;;5.72;;
73550;SDS011;61816;53.582;10.096;2023-04-24T01:50:23;8.73;;;6.07;;
73550;SDS011;61816;53.582;10.096;2023-04-24T01:52:49;8.48;;;5.75;;
73550;SDS011;61816;53.582;10.096;2023-04-24T01:55:14;10.77;;;5.88;;
73550;SDS011;61816;53.582;10.096;2023-04-24T01:57:40;9.82;;;6.28;;
73550;SDS011;61816;53.582;10.096;2023-04-24T02:00:06;8.02;;;5.38;;
73550;SDS011;61816;53.582;10.096;2023-04-24T02:02:32;9.88;;;5.85;;
73550;SDS011;61816;53.582;10.096;2023-04-24T02:04:58;4.85;;;4.25;;
73550;SDS011;61816;53.582;10.096;2023-04-24T02:07:24;7.18;;;4.95;;
73550;SDS011;61816;53.582;10.096;2023-04-24T02:09:49;10.23;;;4.43;;
73550;SDS011;61816;53.582;10.096;2023-04-24T02:12:14;7.80;;;5.00;;
73550;SDS011;61816;53.582;10.096;2023-04-24T02:14:40;7.18;;;4.13;;
73550;SDS011;61816;53.582;10.096;2023-04-24T02:17:07;6.72;;;4.20;;
73550;SDS011;61816;53.582;10.096;2023-04-24T02:19:33;7.38;;;4.07;;
73550;SDS011;61816;53.582;10.096;2023-04-24T02:21:58;5.05;;;3.55;;
73550;SDS011;61816;53.582;10.096;2023-04-24T02:24:23;7.88;;;4.10;;
73550;SDS011;61816;53.582;10.096;2023-04-24T02:26:48;5.47;;;3.85;;
73550;SDS011;61816;53.582;10.096;2023-04-24T02:29:14;9.43;;;3.97;;
73550;SDS011;61816;53.582;10.096;2023-04-24T02:31:40;6.60;;;4.07;;
73550;SDS011;61816;53.582;10.096;2023-04-24T02:34:05;5.85;;;3.80;;
73550;SDS011;61816;53.582;10.096;2023-04-24T02:36:31;9.27;;;4.38;;
73550;SDS011;61816;53.582;10.096;2023-04-24T02:38:56;7.18;;;3.85;;
73550;SDS011;61816;53.582;10.096;2023-04-24T02:41:22;9.27;;;4.05;;
73550;SDS011;61816;53.582;10.096;2023-04-24T02:43:47;6.78;;;3.88;;
73550;SDS011;61816;53.582;10.096;2023-04-24T02:46:12;5.88;;;3.55;;
73550;SDS011;61816;53.582;10.096;2023-04-24T02:48:38;10.07;;;3.45;;
73550;SDS011;61816;53.582;10.096;2023-04-24T02:51:03;8.77;;;3.58;;
73550;SDS011;61816;53.582;10.096;2023-04-24T02:53:29;9.88;;;3.47;;
73550;SDS011;61816;53.582;10.096;2023-04-24T02:55:55;3.58;;;2.92;;
73550;SDS011;61816;53.582;10.096;2023-04-24T02:58:21;3.88;;;3.38;;
73550;SDS011;61816;53.582;10.096;2023-04-24T03:00:46;4.55;;;2.92;;
73550;SDS011;61816;53.582;10.096;2023-04-24T03:03:12;14.25;;;3.08;;
73550;SDS011;61816;53.582;10.096;2023-04-24T03:05:38;6.22;;;2.90;;
73550;SDS011;61816;53.582;10.096;2023-04-24T03:08:03;9.35;;;2.92;;
73550;SDS011;61816;53.582;10.096;2023-04-24T03:10:29;8.10;;;2.65;;
73550;SDS011;61816;53.582;10.096;2023-04-24T03:12:54;5.05;;;2.72;;
73550;SDS011;61816;53.582;10.096;2023-04-24T03:15:20;5.25;;;3.00;;
73550;SDS011;61816;53.582;10.096;2023-04-24T03:17:45;3.10;;;2.75;;
73550;SDS011;61816;53.582;10.096;2023-04-24T03:20:10;3.28;;;2.45;;
73550;SDS011;61816;53.582;10.096;2023-04-24T03:22:36;5.18;;;2.80;;
73550;SDS011;61816;53.582;10.096;2023-04-24T03:25:01;5.38;;;2.80;;
73550;SDS011;61816;53.582;10.096;2023-04-24T03:27:27;4.72;;;2.20;;
73550;SDS011;61816;53.582;10.096;2023-04-24T03:29:52;2.08;;;1.88;;
73550;SDS011;61816;53.582;10.096;2023-04-24T03:32:20;5.57;;;2.53;;
73550;SDS011;61816;53.582;10.096;2023-04-24T03:34:47;3.15;;;1.98;;
73550;SDS011;61816;53.582;10.096;2023-04-24T03:37:13;5.35;;;2.03;;
73550;SDS011;61816;53.582;10.096;2023-04-24T03:39:38;3.28;;;2.20;;
73550;SDS011;61816;53.582;10.096;2023-04-24T03:42:03;8.15;;;2.30;;
73550;SDS011;61816;53.582;10.096;2023-04-24T03:44:29;3.25;;;1.80;;
73550;SDS011;61816;53.582;10.096;2023-04-24T03:46:54;2.70;;;2.17;;
73550;SDS011;61816;53.582;10.096;2023-04-24T03:49:20;4.03;;;1.70;;
73550;SDS011;61816;53.582;10.096;2023-04-24T03:51:45;3.53;;;1.90;;
73550;SDS011;61816;53.582;10.096;2023-04-24T03:54:11;5.30;;;2.20;;
73550;SDS011;61816;53.582;10.096;2023-04-24T03:56:36;3.15;;;2.22;;
73550;SDS011;61816;53.582;10.096;2023-04-24T03:59:02;3.75;;;2.50;;
73550;SDS011;61816;53.582;10.096;2023-04-24T04:01:27;3.90;;;2.13;;
73550;SDS011;61816;53.582;10.096;2023-04-24T04:03:53;3.92;;;2.45;;
73550;SDS011;61816;53.582;10.096;2023-04-24T04:06:18;3.13;;;2.03;;
73550;SDS011;61816;53.582;10.096;2023-04-24T04:08:44;5.13;;;2.15;;
73550;SDS011;61816;53.582;10.096;2023-04-24T04:11:10;4.03;;;2.28;;
73550;SDS011;61816;53.582;10.096;2023-04-24T04:13:35;3.60;;;1.77;;
73550;SDS011;61816;53.582;10.096;2023-04-24T04:16:00;7.72;;;1.83;;
73550;SDS011;61816;53.582;10.096;2023-04-24T04:18:26;3.50;;;1.70;;
73550;SDS011;61816;53.582;10.096;2023-04-24T04:20:51;3.65;;;1.67;;
73550;SDS011;61816;53.582;10.096;2023-04-24T04:23:17;3.35;;;1.90;;
73550;SDS011;61816;53.582;10.096;2023-04-24T04:25:42;6.28;;;1.95;;
73550;SDS011;61816;53.582;10.096;2023-04-24T04:28:08;3.75;;;2.20;;
73550;SDS011;61816;53.582;10.096;2023-04-24T04:30:33;3.65;;;1.88;;
73550;SDS011;61816;53.582;10.096;2023-04-24T04:32:58;2.60;;;1.70;;
73550;SDS011;61816;53.582;10.096;2023-04-24T04:35:24;6.80;;;1.95;;
73550;SDS011;61816;53.582;10.096;2023-04-24T04:37:50;2.03;;;1.83;;
73550;SDS011;61816;53.582;10.096;2023-04-24T04:40:16;3.22;;;1.90;;
73550;SDS011;61816;53.582;10.096;2023-04-24T04:42:42;2.60;;;1.80;;
73550;SDS011;61816;53.582;10.096;2023-04-24T04:45:11;8.73;;;1.70;;
73550;SDS011;61816;53.582;10.096;2023-04-24T04:47:36;7.05;;;2.10;;
73550;SDS011;61816;53.582;10.096;2023-04-24T04:50:02;3.80;;;2.08;;
73550;SDS011;61816;53.582;10.096;2023-04-24T04:52:29;5.22;;;1.88;;
73550;SDS011;61816;53.582;10.096;2023-04-24T04:54:54;7.35;;;2.25;;
73550;SDS011;61816;53.582;10.096;2023-04-24T04:57:20;3.28;;;1.80;;
73550;SDS011;61816;53.582;10.096;2023-04-24T04:59:46;2.47;;;1.58;;
73550;SDS011;61816;53.582;10.096;2023-04-24T05:02:12;4.40;;;1.40;;
73550;SDS011;61816;53.582;10.096;2023-04-24T05:04:37;5.13;;;1.40;;
73550;SDS011;61816;53.582;10.096;2023-04-24T05:07:03;3.67;;;1.27;;
73550;SDS011;61816;53.582;10.096;2023-04-24T05:09:28;4.05;;;1.75;;
73550;SDS011;61816;53.582;10.096;2023-04-24T05:11:54;5.10;;;1.52;;
73550;SDS011;61816;53.582;10.096;2023-04-24T05:14:21;2.92;;;1.30;;
73550;SDS011;61816;53.582;10.096;2023-04-24T05:16:46;1.38;;;1.23;;
73550;SDS011;61816;53.582;10.096;2023-04-24T05:19:12;2.20;;;1.30;;
73550;SDS011;61816;53.582;10.096;2023-04-24T05:21:39;4.72;;;1.55;;
73550;SDS011;61816;53.582;10.096;2023-04-24T05:24:05;5.43;;;1.67;;
73550;SDS011;61816;53.582;10.096;2023-04-24T05:26:31;3.80;;;1.27;;
73550;SDS011;61816;53.582;10.096;2023-04-24T05:28:56;2.92;;;1.20;;
73550;SDS011;61816;53.582;10.096;2023-04-24T05:31:21;3.22;;;1.30;;
73550;SDS011;61816;53.582;10.096;2023-04-24T05:33:47;1.83;;;0.98;;
73550;SDS011;61816;53.582;10.096;2023-04-24T05:36:12;2.03;;;1.30;;
73550;SDS011;61816;53.582;10.096;2023-04-24T05:38:38;3.17;;;1.38;;
73550;SDS011;61816;53.582;10.096;2023-04-24T05:41:03;1.63;;;1.25;;
73550;SDS011;61816;53.582;10.096;2023-04-24T05:43:29;4.68;;;1.20;;
73550;SDS011;61816;53.582;10.096;2023-04-24T05:45:54;11.40;;;1.35;;
73550;SDS011;61816;53.582;10.096;2023-04-24T05:48:20;4.28;;;1.10;;
73550;SDS011;61816;53.582;10.096;2023-04-24T05:50:47;10.40;;;1.10;;
73550;SDS011;61816;53.582;10.096;2023-04-24T05:53:13;1.80;;;1.10;;
73550;SDS011;61816;53.582;10.096;2023-04-24T05:55:38;1.10;;;1.00;;
73550;SDS011;61816;53.582;10.096;2023-04-24T05:58:03;5.20;;;1.40;;
73550;SDS011;61816;53.582;10.096;2023-04-24T06:00:29;4.25;;;1.38;;
73550;SDS011;61816;53.582;10.096;2023-04-24T06:02:55;1.58;;;1.10;;
73550;SDS011;61816;53.582;10.096;2023-04-24T06:05:20;2.55;;;1.23;;
73550;SDS011;61816;53.582;10.096;2023-04-24T06:07:46;1.95;;;1.20;;
73550;SDS011;61816;53.582;10.096;2023-04-24T06:10:12;4.32;;;1.20;;
73550;SDS011;61816;53.582;10.096;2023-04-24T06:12:37;3.60;;;1.45;;
73550;SDS011;61816;53.582;10.096;2023-04-24T06:15:03;6.50;;;1.77;;
73550;SDS011;61816;53.582;10.096;2023-04-24T06:17:28;2.28;;;1.40;;
73550;SDS011;61816;53.582;10.096;2023-04-24T06:19:54;2.45;;;1.30;;
73550;SDS011;61816;53.582;10.096;2023-04-24T06:22:19;4.53;;;1.50;;
73550;SDS011;61816;53.582;10.096;2023-04-24T06:24:44;2.63;;;1.90;;
73550;SDS011;61816;53.582;10.096;2023-04-24T06:27:10;3.25;;;1.70;;
73550;SDS011;61816;53.582;10.096;2023-04-24T06:29:35;4.05;;;1.40;;
73550;SDS011;61816;53.582;10.096;2023-04-24T06:32:01;4.05;;;1.98;;
73550;SDS011;61816;53.582;10.096;2023-04-24T06:34:26;3.65;;;1.52;;
73550;SDS011;61816;53.582;10.096;2023-04-24T06:36:52;4.03;;;1.60;;
73550;SDS011;61816;53.582;10.096;2023-04-24T06:39:17;4.10;;;1.80;;
73550;SDS011;61816;53.582;10.096;2023-04-24T06:41:42;9.85;;;1.98;;
73550;SDS011;61816;53.582;10.096;2023-04-24T06:44:08;5.47;;;1.95;;
73550;SDS011;61816;53.582;10.096;2023-04-24T06:46:33;2.33;;;1.52;;
73550;SDS011;61816;53.582;10.096;2023-04-24T06:48:59;7.57;;;1.80;;
73550;SDS011;61816;53.582;10.096;2023-04-24T06:51:25;4.18;;;2.00;;
73550;SDS011;61816;53.582;10.096;2023-04-24T06:53:52;5.18;;;1.83;;
73550;SDS011;61816;53.582;10.096;2023-04-24T06:56:18;5.30;;;2.03;;
73550;SDS011;61816;53.582;10.096;2023-04-24T06:58:45;3.88;;;1.58;;
73550;SDS011;61816;53.582;10.096;2023-04-24T07:01:11;5.00;;;1.92;;
73550;SDS011;61816;53.582;10.096;2023-04-24T07:03:36;4.53;;;2.10;;
73550;SDS011;61816;53.582;10.096;2023-04-24T07:06:01;4.38;;;2.13;;
73550;SDS011;61816;53.582;10.096;2023-04-24T07:08:28;5.10;;;1.77;;
73550;SDS011;61816;53.582;10.096;2023-04-24T07:10:55;3.70;;;1.83;;
73550;SDS011;61816;53.582;10.096;2023-04-24T07:13:21;4.40;;;2.10;;
73550;SDS011;61816;53.582;10.096;2023-04-24T07:15:47;5.10;;;2.00;;
73550;SDS011;61816;53.582;10.096;2023-04-24T07:18:15;5.65;;;2.50;;
73550;SDS011;61816;53.582;10.096;2023-04-24T07:20:41;3.10;;;2.10;;
73550;SDS011;61816;53.582;10.096;2023-04-24T07:23:07;2.33;;;2.10;;
73550;SDS011;61816;53.582;10.096;2023-04-24T07:25:32;3.80;;;2.63;;
73550;SDS011;61816;53.582;10.096;2023-04-24T07:27:58;8.35;;;2.50;;
73550;SDS011;61816;53.582;10.096;2023-04-24T07:30:23;3.28;;;2.30;;
73550;SDS011;61816;53.582;10.096;2023-04-24T07:32:49;3.40;;;2.10;;
73550;SDS011;61816;53.582;10.096;2023-04-24T07:35:14;5.38;;;2.70;;
73550;SDS011;61816;53.582;10.096;2023-04-24T07:37:39;4.80;;;2.67;;
73550;SDS011;61816;53.582;10.096;2023-04-24T07:40:05;13.45;;;2.78;;
73550;SDS011;61816;53.582;10.096;2023-04-24T07:42:31;6.97;;;2.70;;
73550;SDS011;61816;53.582;10.096;2023-04-24T07:44:59;7.40;;;2.40;;
73550;SDS011;61816;53.582;10.096;2023-04-24T07:47:24;7.53;;;2.88;;
73550;SDS011;61816;53.582;10.096;2023-04-24T07:49:50;4.72;;;2.67;;
73550;SDS011;61816;53.582;10.096;2023-04-24T07:52:16;3.67;;;2.75;;
73550;SDS011;61816;53.582;10.096;2023-04-24T07:54:41;4.43;;;2.45;;
73550;SDS011;61816;53.582;10.096;2023-04-24T07:57:07;4.50;;;3.17;;
73550;SDS011;61816;53.582;10.096;2023-04-24T07:59:33;8.30;;;3.40;;
73550;SDS011;61816;53.582;10.096;2023-04-24T08:02:00;4.47;;;2.80;;
73550;SDS011;61816;53.582;10.096;2023-04-24T08:04:26;16.95;;;3.42;;
73550;SDS011;61816;53.582;10.096;2023-04-24T08:06:52;12.00;;;3.13;;
73550;SDS011;61816;53.582;10.096;2023-04-24T08:09:17;9.05;;;3.92;;
73550;SDS011;61816;53.582;10.096;2023-04-24T08:11:43;7.93;;;2.80;;
73550;SDS011;61816;53.582;10.096;2023-04-24T08:14:08;4.45;;;2.85;;
73550;SDS011;61816;53.582;10.096;2023-04-24T08:16:34;12.07;;;3.78;;
73550;SDS011;61816;53.582;10.096;2023-04-24T08:18:59;11.95;;;4.43;;
73550;SDS011;61816;53.582;10.096;2023-04-24T08:21:25;5.82;;;3.70;;
73550;SDS011;61816;53.582;10.096;2023-04-24T08:23:52;7.80;;;4.22;;
73550;SDS011;61816;53.582;10.096;2023-04-24T08:26:17;8.60;;;4.30;;
73550;SDS011;61816;53.582;10.096;2023-04-24T08:28:43;4.47;;;4.05;;
73550;SDS011;61816;53.582;10.096;2023-04-24T08:31:08;5.88;;;4.20;;
73550;SDS011;61816;53.582;10.096;2023-04-24T08:33:33;9.20;;;4.78;;
73550;SDS011;61816;53.582;10.096;2023-04-24T08:36:03;7.07;;;4.75;;
73550;SDS011;61816;53.582;10.096;2023-04-24T08:38:29;5.72;;;4.00;;
73550;SDS011;61816;53.582;10.096;2023-04-24T08:40:56;7.55;;;4.25;;
73550;SDS011;61816;53.582;10.096;2023-04-24T08:43:23;8.13;;;4.53;;
73550;SDS011;61816;53.582;10.096;2023-04-24T08:45:49;5.78;;;4.25;;
73550;SDS011;61816;53.582;10.096;2023-04-24T08:48:15;8.18;;;4.57;;
73550;SDS011;61816;53.582;10.096;2023-04-24T08:50:41;10.55;;;5.00;;
73550;SDS011;61816;53.582;10.096;2023-04-24T08:53:08;6.47;;;4.40;;
73550;SDS011;61816;53.582;10.096;2023-04-24T08:55:34;6.93;;;4.80;;
73550;SDS011;61816;53.582;10.096;2023-04-24T08:58:00;4.85;;;3.80;;
73550;SDS011;61816;53.582;10.096;2023-04-24T09:00:27;5.53;;;4.15;;
73550;SDS011;61816;53.582;10.096;2023-04-24T09:02:53;5.22;;;4.07;;
73550;SDS011;61816;53.582;10.096;2023-04-24T09:05:18;18.30;;;5.30;;
73550;SDS011;61816;53.582;10.096;2023-04-24T09:07:48;9.30;;;4.70;;
73550;SDS011;61816;53.582;10.096;2023-04-24T09:10:17;9.70;;;4.40;;
73550;SDS011;61816;53.582;10.096;2023-04-24T09:12:43;7.43;;;4.85;;
73550;SDS011;61816;53.582;10.096;2023-04-24T09:15:09;10.60;;;4.60;;
73550;SDS011;61816;53.582;10.096;2023-04-24T09:17:35;7.32;;;4.05;;
73550;SDS011;61816;53.582;10.096;2023-04-24T09:20:01;15.63;;;4.55;;
73550;SDS011;61816;53.582;10.096;2023-04-24T09:22:29;8.15;;;4.40;;
73550;SDS011;61816;53.582;10.096;2023-04-24T09:25:02;6.78;;;4.82;;
73550;SDS011;61816;53.582;10.096;2023-04-24T09:27:35;8.30;;;4.50;;
73550;SDS011;61816;53.582;10.096;2023-04-24T09:30:01;6.90;;;4.68;;
73550;SDS011;61816;53.582;10.096;2023-04-24T09:32:27;8.85;;;4.88;;
73550;SDS011;61816;53.582;10.096;2023-04-24T09:37:46;8.60;;;5.00;;
73550;SDS011;61816;53.582;10.096;2023-04-24T09:40:17;8.32;;;5.93;;
73550;SDS011;61816;53.582;10.096;2023-04-24T09:42:44;6.95;;;4.88;;
73550;SDS011;61816;53.582;10.096;2023-04-24T09:45:11;7.95;;;5.15;;
73550;SDS011;61816;53.582;10.096;2023-04-24T09:47:40;11.80;;;6.20;;
73550;SDS011;61816;53.582;10.096;2023-04-24T09:50:12;10.00;;;5.80;;
73550;SDS011;61816;53.582;10.096;2023-04-24T09:52:40;8.68;;;5.20;;
73550;SDS011;61816;53.582;10.096;2023-04-24T09:55:26;10.25;;;5.70;;
73550;SDS011;61816;53.582;10.096;2023-04-24T09:57:53;9.70;;;4.95;;
73550;SDS011;61816;53.582;10.096;2023-04-24T10:00:26;9.35;;;5.28;;
73550;SDS011;61816;53.582;10.096;2023-04-24T10:05:30;8.13;;;5.82;;
73550;SDS011;61816;53.582;10.096;2023-04-24T10:08:07;9.02;;;6.22;;
73550;SDS011;61816;53.582;10.096;2023-04-24T10:10:45;9.60;;;5.50;;
73550;SDS011;61816;53.582;10.096;2023-04-24T10:13:12;8.98;;;5.35;;
73550;SDS011;61816;53.582;10.096;2023-04-24T10:15:40;7.63;;;5.55;;
73550;SDS011;61816;53.582;10.096;2023-04-24T10:18:06;10.02;;;7.10;;
73550;SDS011;61816;53.582;10.096;2023-04-24T10:20:34;11.27;;;7.18;;
73550;SDS011;61816;53.582;10.096;2023-04-24T10:23:00;11.77;;;7.32;;
73550;SDS011;61816;53.582;10.096;2023-04-24T10:25:27;12.40;;;7.32;;
73550;SDS011;61816;53.582;10.096;2023-04-24T10:27:57;10.50;;;6.85;;
73550;SDS011;61816;53.582;10.096;2023-04-24T10:30:27;12.18;;;7.68;;
73550;SDS011;61816;53.582;10.096;2023-04-24T10:33:06;16.35;;;8.07;;
73550;SDS011;61816;53.582;10.096;2023-04-24T10:35:37;12.02;;;7.88;;
73550;SDS011;61816;53.582;10.096;2023-04-24T10:38:13;11.02;;;8.15;;
73550;SDS011;61816;53.582;10.096;2023-04-24T10:40:41;10.10;;;7.43;;
73550;SDS011;61816;53.582;10.096;2023-04-24T10:43:08;14.25;;;8.43;;
73550;SDS011;61816;53.582;10.096;2023-04-24T10:45:37;11.77;;;8.45;;
73550;SDS011;61816;53.582;10.096;2023-04-24T10:48:04;13.10;;;9.02;;
73550;SDS011;61816;53.582;10.096;2023-04-24T10:53:12;18.60;;;11.57;;
73550;SDS011;61816;53.582;10.096;2023-04-24T10:58:11;18.48;;;10.45;;
73550;SDS011;61816;53.582;10.096;2023-04-24T11:00:37;19.38;;;10.95;;
73550;SDS011;61816;53.582;10.096;2023-04-24T11:03:05;17.92;;;11.70;;
73550;SDS011;61816;53.582;10.096;2023-04-24T11:05:48;18.42;;;10.35;;
73550;SDS011;61816;53.582;10.096;2023-04-24T11:08:16;20.40;;;12.38;;
73550;SDS011;61816;53.582;10.096;2023-04-24T11:10:54;27.60;;;10.88;;
73550;SDS011;61816;53.582;10.096;2023-04-24T11:13:24;20.40;;;10.60;;
73550;SDS011;61816;53.582;10.096;2023-04-24T11:18:40;17.27;;;9.77;;
73550;SDS011;61816;53.582;10.096;2023-04-24T11:21:16;13.25;;;9.27;;
73550;SDS011;61816;53.582;10.096;2023-04-24T11:23:42;18.00;;;10.00;;
73550;SDS011;61816;53.582;10.096;2023-04-24T11:26:11;14.13;;;10.00;;
73550;SDS011;61816;53.582;10.096;2023-04-24T11:28:48;18.05;;;10.18;;
73550;SDS011;61816;53.582;10.096;2023-04-24T11:34:10;17.83;;;9.20;;
73550;SDS011;61816;53.582;10.096;2023-04-24T11:36:39;12.38;;;9.02;;
73550;SDS011;61816;53.582;10.096;2023-04-24T11:39:05;13.32;;;9.32;;
73550;SDS011;61816;53.582;10.096;2023-04-24T11:41:31;13.90;;;9.57;;
73550;SDS011;61816;53.582;10.096;2023-04-24T11:43:57;12.10;;;8.82;;
73550;SDS011;61816;53.582;10.096;2023-04-24T11:46:22;12.95;;;8.98;;
73550;SDS011;61816;53.582;10.096;2023-04-24T11:48:51;17.65;;;9.73;;
73550;SDS011;61816;53.582;10.096;2023-04-24T11:51:16;14.77;;;8.52;;
73550;SDS011;61816;53.582;10.096;2023-04-24T11:53:42;16.13;;;8.60;;
73550;SDS011;61816;53.582;10.096;2023-04-24T11:56:08;15.85;;;9.57;;
73550;SDS011;61816;53.582;10.096;2023-04-24T11:58:37;16.25;;;8.02;;
73550;SDS011;61816;53.582;10.096;2023-04-24T12:01:04;11.52;;;7.05;;
73550;SDS011;61816;53.582;10.096;2023-04-24T12:03:30;14.98;;;6.97;;
73550;SDS011;61816;53.582;10.096;2023-04-24T12:08:51;10.18;;;6.88;;
73550;SDS011;61816;53.582;10.096;2023-04-24T12:11:17;9.50;;;7.03;;
73550;SDS011;61816;53.582;10.096;2023-04-24T12:13:43;16.20;;;7.70;;
73550;SDS011;61816;53.582;10.096;2023-04-24T12:16:10;10.70;;;6.53;;
73550;SDS011;61816;53.582;10.096;2023-04-24T12:18:40;12.27;;;6.45;;
73550;SDS011;61816;53.582;10.096;2023-04-24T12:21:20;8.10;;;6.43;;
73550;SDS011;61816;53.582;10.096;2023-04-24T12:23:54;10.05;;;6.15;;
73550;SDS011;61816;53.582;10.096;2023-04-24T12:26:20;11.25;;;6.07;;
73550;SDS011;61816;53.582;10.096;2023-04-24T12:28:48;12.18;;;5.47;;
73550;SDS011;61816;53.582;10.096;2023-04-24T12:31:15;10.07;;;5.32;;
73550;SDS011;61816;53.582;10.096;2023-04-24T12:33:42;16.92;;;6.50;;
73550;SDS011;61816;53.582;10.096;2023-04-24T12:36:09;7.97;;;5.40;;
73550;SDS011;61816;53.582;10.096;2023-04-24T12:38:35;10.02;;;6.47;;
73550;SDS011;61816;53.582;10.096;2023-04-24T12:41:06;16.90;;;6.00;;
73550;SDS011;61816;53.582;10.096;2023-04-24T12:43:35;11.68;;;6.25;;
73550;SDS011;61816;53.582;10.096;2023-04-24T12:46:01;9.32;;;6.55;;
73550;SDS011;61816;53.582;10.096;2023-04-24T12:48:28;28.02;;;6.38;;
73550;SDS011;61816;53.582;10.096;2023-04-24T12:50:54;7.00;;;5.40;;
73550;SDS011;61816;53.582;10.096;2023-04-24T12:53:21;10.07;;;6.78;;
73550;SDS011;61816;53.582;10.096;2023-04-24T12:55:47;11.63;;;6.30;;
73550;SDS011;61816;53.582;10.096;2023-04-24T12:58:18;11.02;;;5.97;;
73550;SDS011;61816;53.582;10.096;2023-04-24T13:00:44;10.65;;;6.70;;
73550;SDS011;61816;53.582;10.096;2023-04-24T13:03:11;10.15;;;6.13;;
73550;SDS011;61816;53.582;10.096;2023-04-24T13:05:36;8.77;;;4.88;;
73550;SDS011;61816;53.582;10.096;2023-04-24T13:08:02;9.88;;;4.97;;
73550;SDS011;61816;53.582;10.096;2023-04-24T13:10:27;9.63;;;4.75;;
73550;SDS011;61816;53.582;10.096;2023-04-24T13:12:53;9.57;;;6.32;;
73550;SDS011;61816;53.582;10.096;2023-04-24T13:15:18;18.25;;;6.70;;
73550;SDS011;61816;53.582;10.096;2023-04-24T13:17:44;15.40;;;6.80;;
73550;SDS011;61816;53.582;10.096;2023-04-24T13:20:09;8.80;;;6.47;;
73550;SDS011;61816;53.582;10.096;2023-04-24T13:22:35;7.97;;;5.93;;
73550;SDS011;61816;53.582;10.096;2023-04-24T13:25:01;7.20;;;5.57;;
73550;SDS011;61816;53.582;10.096;2023-04-24T13:27:26;8.23;;;5.57;;
73550;SDS011;61816;53.582;10.096;2023-04-24T13:29:51;7.50;;;5.32;;
73550;SDS011;61816;53.582;10.096;2023-04-24T13:32:17;7.72;;;6.25;;
73550;SDS011;61816;53.582;10.096;2023-04-24T13:34:42;11.60;;;6.25;;
73550;SDS011;61816;53.582;10.096;2023-04-24T13:37:08;7.97;;;5.85;;
73550;SDS011;61816;53.582;10.096;2023-04-24T13:39:33;8.98;;;6.25;;
73550;SDS011;61816;53.582;10.096;2023-04-24T13:41:58;7.40;;;5.70;;
73550;SDS011;61816;53.582;10.096;2023-04-24T13:44:24;8.90;;;5.47;;
73550;SDS011;61816;53.582;10.096;2023-04-24T13:46:50;8.65;;;6.20;;
73550;SDS011;61816;53.582;10.096;2023-04-24T13:49:18;7.28;;;5.80;;
73550;SDS011;61816;53.582;10.096;2023-04-24T13:51:44;7.97;;;5.25;;
73550;SDS011;61816;53.582;10.096;2023-04-24T13:54:10;6.75;;;4.72;;
73550;SDS011;61816;53.582;10.096;2023-04-24T13:56:36;14.15;;;5.40;;
73550;SDS011;61816;53.582;10.096;2023-04-24T13:59:01;5.68;;;4.90;;
73550;SDS011;61816;53.582;10.096;2023-04-24T14:01:27;16.27;;;5.43;;
73550;SDS011;61816;53.582;10.096;2023-04-24T14:03:53;6.90;;;4.38;;
73550;SDS011;61816;53.582;10.096;2023-04-24T14:06:20;8.77;;;5.20;;
73550;SDS011;61816;53.582;10.096;2023-04-24T14:08:46;10.13;;;5.93;;
73550;SDS011;61816;53.582;10.096;2023-04-24T14:11:12;5.72;;;5.07;;
73550;SDS011;61816;53.582;10.096;2023-04-24T14:13:38;11.90;;;5.93;;
73550;SDS011;61816;53.582;10.096;2023-04-24T14:16:05;6.50;;;5.28;;
73550;SDS011;61816;53.582;10.096;2023-04-24T14:18:31;9.40;;;5.60;;
73550;SDS011;61816;53.582;10.096;2023-04-24T14:20:56;7.63;;;5.60;;
73550;SDS011;61816;53.582;10.096;2023-04-24T14:23:21;9.45;;;5.45;;
73550;SDS011;61816;53.582;10.096;2023-04-24T14:25:47;8.38;;;5.70;;
73550;SDS011;61816;53.582;10.096;2023-04-24T14:28:16;7.47;;;4.70;;
73550;SDS011;61816;53.582;10.096;2023-04-24T14:30:42;13.68;;;5.85;;
73550;SDS011;61816;53.582;10.096;2023-04-24T14:33:07;6.88;;;4.25;;
73550;SDS011;61816;53.582;10.096;2023-04-24T14:35:32;8.32;;;4.93;;
73550;SDS011;61816;53.582;10.096;2023-04-24T14:38:00;5.88;;;4.45;;
73550;SDS011;61816;53.582;10.096;2023-04-24T14:40:26;6.05;;;4.47;;
73550;SDS011;61816;53.582;10.096;2023-04-24T14:42:51;7.88;;;5.22;;
73550;SDS011;61816;53.582;10.096;2023-04-24T14:45:17;10.23;;;5.68;;